Accueil
METAR-TAF:

METAR-TAF

Aéroports :

Hofu, Japon

latitude: 34-02N, longitude: 131-33E, altitude: 2 m

Observation

Le bulletin a été fait il y a 1 heure et 9 minutes, à 16:47 UTC
Vent 15 kt de est/sud-est, variant entre est et sud-est
Température 17°C
Humidité 94%
Pression 1011 hPa
Visibilité: 5000 m
Quelques nuages à une hauteur de 500 ft
Nuages épars à une hauteur de 800 ft
Nuages fragmentés à une hauteur de 1000 ft
Nuages épars à une hauteur de 2000 ft, Cumulus congestus.
averses de pluie

METAR: RJOF 231647Z 11015KT 080V140 5000 SHRA FEW005 SCT008 BKN010 SCT020TCU 17/16 Q1011 RMK 1ST005 3ST008 7CU010 3TCU020 A2987 TCU OHD MOV NE

Heure: 02:56 (17:56 UTC)


TAF: absent

Observations et prévisions météorologiques de plus de 4000 aéroports (messages METAR et TAF).

Les stations disponibles sont représentées par des disques jaunes et rouges sur la carte.

Passer la souris dessus pour voir le nom de la station.

Cliquer dessus pour voir les observations et prévisions météorologiques.

Pour changer de carte: cliquez sur les boutons verts avec une croix noire pour zoomer, sur le bouton vert avec un tiret pour effectuer un zoom arrière, ou sur les flèches vertes pour les cartes adjacentes.


METAR-TAF: